Time;durP1;ratioP1;P1;durP2;ratioP2;P2;SDS_P1;SDS_P2;PMS_P1;PMS_P2;Temp;Humidity;BMP_temperature;BMP_pressure;BME280_temperature;BME280_humidity;BME280_pressure;Samples;Min_cycle;Max_cycle;Signal;HPM_P1;HPM_P2
2022/10/14 00:00:40;;;;;;;63.13;44.40;;;384.90;2329.60;;;;;;5094787;28;20024;-79
2022/10/14 00:03:06;;;;;;;71.10;49.85;;;384.80;2329.60;;;;;;5093003;28;20451;-77
2022/10/14 00:05:31;;;;;;;55.20;40.75;;;384.80;2329.60;;;;;;5092752;28;20114;-78
2022/10/14 00:07:57;;;;;;;45.85;35.15;;;384.80;2329.60;;;;;;5093320;28;20020;-78
2022/10/14 00:10:23;;;;;;;44.05;30.42;;;384.80;2329.60;;;;;;5093431;28;20056;-77
2022/10/14 00:12:49;;;;;;;41.17;31.02;;;384.80;2329.60;;;;;;5092793;28;20468;-77
2022/10/14 00:15:16;;;;;;;42.60;32.05;;;384.90;2329.60;;;;;;5092563;28;20078;-78
2022/10/14 00:17:42;;;;;;;40.50;32.72;;;384.90;2329.60;;;;;;5097518;28;20540;-77
2022/10/14 00:20:08;;;;;;;50.45;33.13;;;384.70;2329.60;;;;;;5097738;28;20048;-77
2022/10/14 00:22:34;;;;;;;37.60;31.40;;;384.70;2329.60;;;;;;5097814;28;20074;-77
2022/10/14 00:25:00;;;;;;;42.25;34.15;;;384.80;2329.60;;;;;;5097250;28;20024;-78
2022/10/14 00:27:26;;;;;;;53.92;33.83;;;384.70;2329.60;;;;;;5096131;28;20028;-79
2022/10/14 00:29:52;;;;;;;41.45;33.88;;;384.80;2329.60;;;;;;5097463;28;20024;-78
2022/10/14 00:32:17;;;;;;;41.20;32.65;;;384.80;2329.60;;;;;;5097263;28;20379;-79
2022/10/14 00:34:43;;;;;;;37.88;30.63;;;384.70;2329.60;;;;;;5096740;28;20059;-79
2022/10/14 00:37:09;;;;;;;42.60;32.45;;;384.80;2329.60;;;;;;5095933;28;20024;-79
2022/10/14 00:39:35;;;;;;;45.28;32.78;;;384.80;2329.60;;;;;;5097161;28;20132;-78
2022/10/14 00:42:01;;;;;;;45.08;33.10;;;384.60;2329.60;;;;;;5095766;28;20023;-78
2022/10/14 00:44:27;;;;;;;43.72;32.83;;;384.60;2329.60;;;;;;5095859;28;20379;-78
2022/10/14 00:46:54;;;;;;;43.65;31.92;;;384.70;2329.60;;;;;;5095679;28;20085;-78
2022/10/14 00:49:32;;;;;;;40.80;32.15;;;384.70;2329.60;;;;;;5095712;28;20031;-77
2022/10/14 00:52:03;;;;;;;49.10;37.90;;;384.80;2329.60;;;;;;5096689;28;20025;-78
2022/10/14 00:54:33;;;;;;;47.15;38.45;;;384.60;2329.60;;;;;;5095700;28;20067;-77
2022/10/14 00:57:00;;;;;;;48.90;37.38;;;384.70;2329.60;;;;;;5095510;28;20490;-78
2022/10/14 00:59:26;;;;;;;47.03;36.60;;;384.70;2329.60;;;;;;5095431;28;20020;-78
2022/10/14 01:01:52;;;;;;;44.13;36.13;;;384.90;2329.60;;;;;;5096603;28;20509;-76
2022/10/14 01:04:17;;;;;;;45.03;34.55;;;384.80;2329.60;;;;;;5095383;28;20024;-76
2022/10/14 01:07:06;;;;;;;50.65;37.58;;;384.80;2329.60;;;;;;5095311;28;20043;-76
2022/10/14 01:09:39;;;;;;;48.65;37.47;;;384.80;2329.60;;;;;;5095279;28;20028;-77
2022/10/14 01:12:10;;;;;;;;;;;384.80;2329.60;;;;;;5076634;28;20384;-76
2022/10/14 01:14:58;;;;;;;47.22;34.63;;;384.90;2329.60;;;;;;5091087;28;19904;-76
2022/10/14 01:17:30;;;;;;;49.35;36.83;;;384.80;2329.60;;;;;;5074327;28;20494;-76
2022/10/14 01:20:20;;;;;;;51.88;35.65;;;384.70;2329.60;;;;;;5076282;28;20415;-76
2022/10/14 01:23:03;;;;;;;42.90;31.40;;;384.60;2329.60;;;;;;5074999;28;20029;-76
2022/10/14 01:25:36;;;;;;;40.30;32.33;;;384.70;2329.60;;;;;;5075479;28;20549;-76
2022/10/14 01:28:02;;;;;;;41.70;30.95;;;384.80;2329.60;;;;;;5075517;28;20048;-75
2022/10/14 01:30:42;;;;;;;39.58;30.05;;;384.60;2329.60;;;;;;5076166;28;20464;-78
2022/10/14 01:33:27;;;;;;;39.85;30.33;;;384.60;2329.60;;;;;;5075388;28;20052;-76
2022/10/14 01:35:58;;;;;;;40.28;32.42;;;384.60;2329.60;;;;;;5074765;28;20364;-77
2022/10/14 01:38:46;;;;;;;41.08;32.47;;;384.60;2329.60;;;;;;5074455;28;20031;-76
2022/10/14 01:41:29;;;;;;;43.65;33.97;;;384.60;2329.60;;;;;;5091073;28;20079;-77
2022/10/14 01:43:57;;;;;;;;;;;384.70;2329.60;;;;;;5094634;28;20522;-78
2022/10/14 01:46:25;;;;;;;42.88;34.15;;;384.60;2329.60;;;;;;5095212;28;19911;-76
2022/10/14 01:48:59;;;;;;;44.05;32.78;;;384.60;2329.60;;;;;;5096080;28;20369;-76
2022/10/14 01:51:44;;;;;;;51.42;38.20;;;384.60;2329.60;;;;;;5095515;28;20365;-75
2022/10/14 01:54:14;;;;;;;53.63;36.92;;;384.60;2329.60;;;;;;5094483;28;20520;-75
2022/10/14 01:56:43;;;;;;;44.42;36.00;;;384.60;2329.60;;;;;;5094332;28;20034;-76
2022/10/14 01:59:11;;;;;;;48.70;36.97;;;384.60;2329.60;;;;;;5095429;28;20024;-76
2022/10/14 02:01:37;;;;;;;45.40;33.17;;;384.60;2329.60;;;;;;5094471;28;20055;-76
2022/10/14 02:04:16;;;;;;;43.40;29.92;;;384.60;2329.60;;;;;;5094315;28;20064;-78
2022/10/14 02:06:53;;;;;;;40.30;30.67;;;384.30;2329.60;;;;;;5095237;28;20036;-77
2022/10/14 02:09:41;;;;;;;40.67;30.13;;;384.10;2329.60;;;;;;5094199;28;20024;-76
2022/10/14 02:12:18;;;;;;;35.83;28.25;;;384.20;2329.60;;;;;;5094211;28;20521;-76
2022/10/14 02:15:17;;;;;;;39.35;29.40;;;384.40;2329.60;;;;;;5093980;28;20020;-75
2022/10/14 02:18:12;;;;;;;42.53;31.02;;;384.40;2329.60;;;;;;5093902;28;20020;-76
2022/10/14 02:20:55;;;;;;;38.20;30.58;;;384.30;2329.60;;;;;;5078731;28;20048;-76
2022/10/14 02:23:40;;;;;;;37.45;29.60;;;384.30;2329.60;;;;;;5093940;28;20028;-77
2022/10/14 02:26:07;;;;;;;43.72;33.90;;;384.40;2329.60;;;;;;5093866;28;20064;-77
2022/10/14 02:28:33;;;;;;;43.63;34.35;;;384.30;2329.60;;;;;;5093660;28;20371;-77
2022/10/14 02:31:05;;;;;;;42.17;32.13;;;384.30;2329.60;;;;;;5093760;28;20085;-77
2022/10/14 02:33:36;;;;;;;40.40;31.13;;;384.20;2329.60;;;;;;5093582;28;20039;-75
2022/10/14 02:36:06;;;;;;;45.20;32.70;;;384.10;2329.60;;;;;;5093932;28;20028;-76
2022/10/14 02:38:32;;;;;;;40.03;31.58;;;384.00;2329.60;;;;;;5093373;28;20027;-78
2022/10/14 02:41:02;;;;;;;42.60;29.58;;;359.30;2329.60;;;;;;5093416;28;20031;-76
2022/10/14 02:43:28;;;;;;;35.85;28.83;;;384.00;2329.60;;;;;;5093586;28;20031;-77
2022/10/14 02:45:58;;;;;;;35.92;26.98;;;384.10;2329.60;;;;;;5094634;28;20028;-77
2022/10/14 02:48:24;;;;;;;38.05;28.27;;;384.20;2329.60;;;;;;5094199;28;20059;-76
2022/10/14 02:50:49;;;;;;;38.97;28.33;;;384.20;2329.60;;;;;;5093419;28;20051;-77
2022/10/14 02:53:16;;;;;;;43.45;30.38;;;384.10;2329.60;;;;;;5093260;28;20460;-77
2022/10/14 02:55:41;;;;;;;34.05;28.83;;;384.00;2329.60;;;;;;5093069;28;20031;-76
2022/10/14 02:58:07;;;;;;;36.45;27.52;;;384.00;2329.60;;;;;;5093184;28;20105;-76
2022/10/14 03:00:33;;;;;;;36.03;27.58;;;384.10;2329.60;;;;;;5093215;28;20054;-76
2022/10/14 03:02:59;;;;;;;39.05;28.52;;;384.20;2329.60;;;;;;5094310;28;20599;-77
2022/10/14 03:05:25;;;;;;;38.35;28.42;;;384.20;2329.60;;;;;;5093086;28;20043;-77
2022/10/14 03:07:51;;;;;;;37.42;28.13;;;384.10;2329.60;;;;;;5093105;28;20035;-76
2022/10/14 03:10:17;;;;;;;39.67;30.38;;;384.20;2329.60;;;;;;5093881;28;20494;-76
2022/10/14 03:12:42;;;;;;;39.95;28.70;;;384.10;2329.60;;;;;;5092847;28;20042;-77
2022/10/14 03:15:09;;;;;;;37.88;29.58;;;384.10;2329.60;;;;;;5094340;28;20016;-78
2022/10/14 03:17:35;;;;;;;41.22;31.88;;;384.10;2329.60;;;;;;5092753;28;20039;-77
2022/10/14 03:20:02;;;;;;;43.05;30.67;;;384.10;2329.60;;;;;;5093674;28;20048;-77
2022/10/14 03:22:28;;;;;;;39.75;29.60;;;384.10;2329.60;;;;;;5092780;28;20459;-77
2022/10/14 03:24:54;;;;;;;42.13;31.23;;;384.10;2329.60;;;;;;5093981;28;20032;-77
2022/10/14 03:27:20;;;;;;;39.83;29.55;;;359.30;2329.60;;;;;;5092908;28;20085;-76
2022/10/14 03:29:46;;;;;;;40.42;29.88;;;384.00;2329.60;;;;;;5092803;28;20024;-79
2022/10/14 03:32:11;;;;;;;40.92;30.30;;;384.00;2329.60;;;;;;5094582;28;20051;-76
2022/10/14 03:34:37;;;;;;;38.20;28.30;;;359.30;2329.60;;;;;;5092688;28;20034;-76
2022/10/14 03:37:03;;;;;;;40.47;28.60;;;384.00;2329.60;;;;;;5094187;28;20107;-76
2022/10/14 03:39:29;;;;;;;34.33;26.67;;;384.00;2329.60;;;;;;5094469;28;20045;-76
2022/10/14 03:41:55;;;;;;;35.55;27.65;;;384.20;2329.60;;;;;;5093876;28;20171;-76
2022/10/14 03:44:21;;;;;;;39.83;28.70;;;384.20;2329.60;;;;;;5092676;28;20036;-77
2022/10/14 03:46:47;;;;;;;38.45;27.85;;;384.30;2329.60;;;;;;5092573;28;20032;-76
2022/10/14 03:49:13;;;;;;;36.58;28.02;;;384.10;2329.60;;;;;;5093671;28;20031;-77
2022/10/14 03:51:38;;;;;;;34.72;27.17;;;384.10;2329.60;;;;;;5092281;28;20024;-76
2022/10/14 03:54:04;;;;;;;39.67;29.80;;;384.10;2329.60;;;;;;5104570;28;20096;-75
2022/10/14 03:56:30;;;;;;;42.17;29.48;;;384.00;2329.60;;;;;;5104126;28;20462;-76
2022/10/14 03:58:56;;;;;;;37.88;27.98;;;359.30;2329.60;;;;;;5105491;28;20099;-75
2022/10/14 04:01:22;;;;;;;40.00;27.80;;;359.30;2329.60;;;;;;5112979;28;20149;-75
2022/10/14 04:03:49;;;;;;;37.63;27.48;;;359.30;2329.60;;;;;;5113950;28;20045;-75
2022/10/14 04:06:15;;;;;;;37.08;28.90;;;384.00;2329.60;;;;;;5105193;28;20118;-75
2022/10/14 04:08:42;;;;;;;38.50;29.63;;;384.00;2329.60;;;;;;5093819;28;20024;-76
2022/10/14 04:11:08;;;;;;;40.95;29.60;;;359.30;2329.60;;;;;;5095336;28;20082;-76
2022/10/14 04:13:35;;;;;;;41.33;28.80;;;359.30;2329.60;;;;;;5093629;28;20026;-77
2022/10/14 04:16:03;;;;;;;42.97;30.15;;;359.20;2329.60;;;;;;5093691;28;20059;-77
2022/10/14 04:18:29;;;;;;;44.92;30.90;;;359.10;2329.60;;;;;;5092322;28;20083;-77
2022/10/14 04:20:59;;;;;;;41.88;31.20;;;359.10;2329.60;;;;;;5094288;28;20035;-76
2022/10/14 04:23:25;;;;;;;41.35;28.52;;;359.30;2329.60;;;;;;5094008;28;20031;-78
2022/10/14 04:25:51;;;;;;;36.70;27.83;;;359.30;2329.60;;;;;;5092003;28;20032;-76
2022/10/14 04:28:16;;;;;;;35.20;27.48;;;359.30;2329.60;;;;;;5093202;28;20099;-77
2022/10/14 04:30:42;;;;;;;38.00;27.38;;;359.30;2329.60;;;;;;5091990;28;20495;-77
2022/10/14 04:33:08;;;;;;;40.83;28.23;;;359.30;2329.60;;;;;;5092860;28;20029;-77
2022/10/14 04:35:34;;;;;;;36.78;29.58;;;359.30;2329.60;;;;;;5093454;28;20028;-77
2022/10/14 04:38:00;;;;;;;38.08;29.88;;;359.30;2329.60;;;;;;5092019;28;20054;-77
2022/10/14 04:40:25;;;;;;;39.28;28.52;;;359.10;2329.60;;;;;;5091891;28;20035;-76
2022/10/14 04:42:58;;;;;;;38.22;29.40;;;359.20;2329.60;;;;;;5092010;28;20119;-77
2022/10/14 04:45:24;;;;;;;37.40;27.63;;;359.20;2329.60;;;;;;5092045;28;20040;-77
2022/10/14 04:47:51;;;;;;;34.80;27.40;;;359.20;2329.60;;;;;;5091964;28;20032;-76
2022/10/14 04:50:18;;;;;;;39.22;27.80;;;359.20;2329.60;;;;;;5093510;28;20031;-77
2022/10/14 04:52:44;;;;;;;41.72;29.48;;;359.30;2329.60;;;;;;5091987;28;20145;-75
2022/10/14 04:55:11;;;;;;;39.30;29.42;;;359.10;2329.60;;;;;;5091493;28;20032;-76
2022/10/14 04:57:39;;;;;;;40.75;30.58;;;359.10;2329.60;;;;;;5093251;28;20054;-76
2022/10/14 05:00:05;;;;;;;37.42;29.65;;;359.10;2329.60;;;;;;5091886;28;20021;-78
2022/10/14 05:02:31;;;;;;;39.60;29.63;;;359.10;2329.60;;;;;;5093909;28;20099;-76
2022/10/14 05:04:57;;;;;;;34.53;28.42;;;359.10;2329.60;;;;;;5095296;28;20052;-77
2022/10/14 05:07:22;;;;;;;33.90;26.23;;;359.10;2329.60;;;;;;5096620;28;20081;-76
2022/10/14 05:09:48;;;;;;;34.60;28.42;;;359.00;2329.60;;;;;;5095513;28;20540;-77
2022/10/14 05:12:14;;;;;;;68.50;44.05;;;359.00;2329.60;;;;;;5095229;28;20024;-79
2022/10/14 05:14:40;;;;;;;79.82;52.35;;;359.00;2329.60;;;;;;5095039;28;20391;-77
2022/10/14 05:17:06;;;;;;;57.10;39.65;;;359.10;2329.60;;;;;;5095315;28;20066;-79
2022/10/14 05:19:31;;;;;;;59.67;38.83;;;359.10;2329.60;;;;;;5096292;28;20044;-78
2022/10/14 05:21:57;;;;;;;51.55;38.15;;;359.10;2329.60;;;;;;5095003;28;20482;-77
2022/10/14 05:24:23;;;;;;;49.78;37.05;;;359.20;2329.60;;;;;;5095080;28;20051;-78
2022/10/14 05:26:49;;;;;;;42.28;28.67;;;359.10;2329.60;;;;;;5096685;28;20043;-77
2022/10/14 05:29:14;;;;;;;38.70;27.85;;;359.00;2329.60;;;;;;5095054;28;20062;-76
2022/10/14 05:31:40;;;;;;;31.63;25.52;;;359.10;2329.60;;;;;;5096661;28;20039;-76
2022/10/14 05:34:06;;;;;;;30.77;24.23;;;359.20;2329.60;;;;;;5097100;28;20024;-76
2022/10/14 05:36:32;;;;;;;30.98;23.05;;;359.20;2329.60;;;;;;5096111;28;20415;-77
2022/10/14 05:38:58;;;;;;;33.10;25.13;;;359.30;2329.60;;;;;;5095625;28;20109;-78
2022/10/14 05:41:24;;;;;;;34.72;25.42;;;359.30;2329.60;;;;;;5079560;28;20111;-77
2022/10/14 05:43:50;;;;;;;38.92;28.30;;;359.30;2329.60;;;;;;5075668;28;20078;-79
2022/10/14 05:46:16;;;;;;;33.05;25.20;;;384.00;2329.60;;;;;;5074182;28;20036;-80
2022/10/14 05:48:42;;;;;;;27.70;21.98;;;384.00;2329.60;;;;;;5075364;28;20028;-79
2022/10/14 05:51:08;;;;;;;33.83;27.30;;;384.00;2329.60;;;;;;5076356;28;20438;-79
2022/10/14 05:53:35;;;;;;;34.72;25.75;;;359.30;2329.60;;;;;;5074552;28;20383;-79
2022/10/14 05:56:06;;;;;;;31.55;25.08;;;359.30;2329.60;;;;;;5075729;28;20418;-79
2022/10/14 05:58:32;;;;;;;27.77;21.67;;;359.30;2329.60;;;;;;5086942;28;20019;-78
2022/10/14 06:01:06;;;;;;;30.85;22.90;;;384.00;2329.60;;;;;;5100131;28;20013;-79
2022/10/14 06:03:32;;;;;;;33.80;24.42;;;384.10;2329.60;;;;;;5080510;28;20037;-80
2022/10/14 06:31:16;;;;;;;38.28;26.85;;;359.30;2329.60;;;;;;5103192;27;20720;-79
2022/10/14 06:33:42;;;;;;;34.72;26.20;;;;;;;;;;5069374;28;20067;-81
2022/10/14 06:36:09;;;;;;;31.67;23.85;;;;;;;;;;5076188;28;20016;-81
2022/10/14 06:38:35;;;;;;;26.30;22.13;;;384.90;2329.60;;;;;;5094751;28;20028;-80
2022/10/14 06:41:00;;;;;;;35.25;24.17;;;384.60;2176.00;;;;;;5082551;28;20033;-80
2022/10/14 06:43:26;;;;;;;28.67;22.60;;;384.60;2329.60;;;;;;5068735;28;20032;-80
2022/10/14 06:45:55;;;;;;;36.80;27.05;;;384.60;2329.60;;;;;;5069232;28;20029;-78
2022/10/14 06:48:20;;;;;;;38.05;29.15;;;384.50;2329.60;;;;;;5069083;28;20025;-81
2022/10/14 06:50:46;;;;;;;36.92;28.75;;;384.60;2329.60;;;;;;5070587;28;20071;-80
2022/10/14 06:53:12;;;;;;;36.50;30.63;;;384.40;2329.60;;;;;;5069232;28;20028;-80
2022/10/14 06:55:38;;;;;;;42.08;32.20;;;384.50;2329.60;;;;;;5068889;28;20470;-81
2022/10/14 06:58:04;;;;;;;44.90;31.88;;;384.40;2329.60;;;;;;5069335;28;20091;-79
2022/10/14 07:00:30;;;;;;;36.97;28.75;;;384.30;2329.60;;;;;;5068985;28;20040;-80
2022/10/14 07:02:58;;;;;;;40.67;28.80;;;384.50;2329.60;;;;;;5068763;28;20021;-81
2022/10/14 07:05:24;;;;;;;39.50;29.27;;;384.60;2329.60;;;;;;5068906;28;20029;-80
2022/10/14 07:07:50;;;;;;;35.90;27.05;;;384.60;2329.60;;;;;;5068972;28;20032;-80
2022/10/14 07:10:16;;;;;;;42.17;28.33;;;384.60;2329.60;;;;;;5068569;28;20029;-79
2022/10/14 07:12:41;;;;;;;31.17;23.98;;;384.60;2329.60;;;;;;5068771;28;20108;-79
2022/10/14 07:15:08;;;;;;;30.20;22.35;;;384.70;2329.60;;;;;;5068781;28;20024;-79
2022/10/14 07:17:34;;;;;;;33.63;26.15;;;384.80;2329.60;;;;;;5068312;28;20021;-79
2022/10/14 07:19:59;;;;;;;37.55;25.42;;;384.80;2329.60;;;;;;5068683;28;20035;-81
2022/10/14 07:22:25;;;;;;;37.72;26.58;;;384.80;2329.60;;;;;;5068550;28;20122;-80
2022/10/14 07:24:51;;;;;;;39.42;30.15;;;384.90;2329.60;;;;;;5068208;28;20119;-82
2022/10/14 07:27:19;;;;;;;41.03;29.42;;;384.90;2329.60;;;;;;5068434;28;20106;-82
2022/10/14 07:29:45;;;;;;;43.83;32.92;;;409.60;2355.20;;;;;;5067811;28;20053;-79
2022/10/14 07:32:10;;;;;;;36.25;28.88;;;409.70;2355.20;;;;;;5049172;28;20052;-82
2022/10/14 07:34:36;;;;;;;32.35;24.25;;;409.70;2355.20;;;;;;5036584;28;20033;-81
2022/10/14 07:37:02;;;;;;;34.47;26.70;;;409.60;2355.20;;;;;;5034616;28;20025;-81
2022/10/14 07:39:28;;;;;;;28.88;20.92;;;409.70;2355.20;;;;;;5036202;28;20038;-79
2022/10/14 07:41:54;;;;;;;35.05;26.33;;;409.70;2355.20;;;;;;5035181;28;20025;-79
2022/10/14 07:44:20;;;;;;;35.10;25.45;;;409.60;2355.20;;;;;;5034827;28;20032;-81
2022/10/14 07:46:46;;;;;;;31.45;24.52;;;409.60;2355.20;;;;;;5034912;28;20422;-82
2022/10/14 07:49:20;;;;;;;35.25;26.92;;;409.70;2355.20;;;;;;5034850;28;20479;-79
2022/10/14 07:51:46;;;;;;;35.47;23.63;;;409.70;2355.20;;;;;;5034513;28;20124;-80
2022/10/14 07:54:21;;;;;;;33.63;22.48;;;384.70;2329.60;;;;;;5034824;28;20421;-78
2022/10/14 07:56:48;;;;;;;22.45;16.95;;;409.80;2355.20;;;;;;5034565;28;20029;-80
2022/10/14 07:59:15;;;;;;;23.45;18.08;;;409.80;2355.20;;;;;;5035680;28;20033;-79
2022/10/14 08:01:41;;;;;;;27.20;18.33;;;409.80;2355.20;;;;;;5034815;28;20487;-79
2022/10/14 08:04:09;;;;;;;25.42;18.00;;;409.80;2355.20;;;;;;5034704;28;20489;-82
2022/10/14 08:06:35;;;;;;;23.77;17.88;;;409.80;2355.20;;;;;;5034143;28;20029;-79
2022/10/14 08:09:04;;;;;;;28.63;16.02;;;409.90;2355.20;;;;;;5034519;28;20068;-83
2022/10/14 08:11:30;;;;;;;21.38;14.88;;;409.80;2355.20;;;;;;5034556;28;20033;-79
2022/10/14 08:13:58;;;;;;;20.67;15.05;;;409.90;2355.20;;;;;;5034314;28;20029;-80
2022/10/14 08:16:29;;;;;;;25.50;18.52;;;410.00;2355.20;;;;;;5034425;28;20064;-79
2022/10/14 08:19:01;;;;;;;24.00;16.83;;;410.00;2355.20;;;;;;5034203;28;20409;-79
2022/10/14 08:21:27;;;;;;;29.67;18.58;;;409.90;2355.20;;;;;;5034406;28;20433;-79
2022/10/14 08:23:53;;;;;;;24.98;18.33;;;410.00;2355.20;;;;;;5034511;28;20382;-79
2022/10/14 08:26:25;;;;;;;25.52;20.45;;;410.00;2355.20;;;;;;5034050;28;20130;-81
2022/10/14 08:28:51;;;;;;;25.23;19.55;;;409.90;2355.20;;;;;;5034117;28;20029;-80
2022/10/14 08:31:17;;;;;;;27.35;18.75;;;410.00;2355.20;;;;;;5034149;28;20413;-80
2022/10/14 08:33:43;;;;;;;27.98;18.20;;;410.00;2355.20;;;;;;5034998;28;20030;-81
2022/10/14 08:36:09;;;;;;;25.02;18.33;;;410.10;2355.20;;;;;;5034950;28;20386;-80
2022/10/14 08:38:35;;;;;;;37.08;23.63;;;410.10;2355.20;;;;;;5033890;28;20029;-81
2022/10/14 08:41:15;;;;;;;31.10;23.05;;;410.00;2355.20;;;;;;5033693;28;20462;-80
2022/10/14 08:44:08;;;;;;;40.00;32.13;;;410.20;2355.20;;;;;;5033006;28;20128;-81
2022/10/14 08:46:50;;;;;;;;;;;410.20;2355.20;;;;;;5067401;28;20026;-80
2022/10/14 08:49:31;;;;;;;34.67;23.38;;;410.20;2355.20;;;;;;5033746;28;19912;-80
2022/10/14 08:52:19;;;;;;;27.00;19.90;;;410.20;2355.20;;;;;;5033825;28;20474;-81
2022/10/14 08:54:55;;;;;;;28.67;19.02;;;410.20;2355.20;;;;;;5032806;28;20029;-80
2022/10/14 08:57:25;;;;;;;28.42;19.60;;;410.20;2355.20;;;;;;5032976;28;20596;-81
2022/10/14 08:59:51;;;;;;;30.27;21.60;;;410.30;2355.20;;;;;;5033062;28;20528;-82
2022/10/14 09:02:43;;;;;;;29.05;19.63;;;410.30;2355.20;;;;;;5033164;28;20484;-83
2022/10/14 09:05:29;;;;;;;34.30;23.88;;;410.50;2355.20;;;;;;5030155;28;20124;-81
2022/10/14 09:07:57;;;;;;;32.50;24.25;;;410.50;2355.20;;;;;;5032959;28;20524;-82
2022/10/14 09:10:41;;;;;;;30.33;24.00;;;410.50;2355.20;;;;;;5033287;28;20445;-84
2022/10/14 09:13:17;;;;;;;50.30;40.03;;;410.50;2355.20;;;;;;5033366;28;20023;-81
2022/10/14 09:15:49;;;;;;;33.92;19.25;;;410.50;2355.20;;;;;;5034439;28;20083;-83
2022/10/14 09:18:39;;;;;;;25.85;17.45;;;410.50;2355.20;;;;;;5034635;28;20031;-81
2022/10/14 09:21:32;;;;;;;27.23;16.63;;;410.50;2355.20;;;;;;5039072;28;20033;-81
2022/10/14 09:24:00;;;;;;;;;;;410.50;2355.20;;;;;;5053411;28;20056;-79
2022/10/14 09:26:37;;;;;;;22.73;16.17;;;410.40;2355.20;;;;;;5034058;28;19909;-83
2022/10/14 09:29:03;;;;;;;21.67;14.55;;;410.40;2355.20;;;;;;5033294;28;20041;-82
2022/10/14 09:31:29;;;;;;;20.08;13.93;;;410.40;2355.20;;;;;;5032578;28;20033;-80
2022/10/14 09:33:55;;;;;;;20.77;12.68;;;410.50;2355.20;;;;;;5032900;28;20095;-79
2022/10/14 09:36:21;;;;;;;19.80;11.80;;;410.30;2355.20;;;;;;5032545;28;20060;-81
2022/10/14 09:38:54;;;;;;;17.80;12.88;;;410.30;2355.20;;;;;;5032812;28;20029;-79
2022/10/14 09:41:29;;;;;;;25.40;16.77;;;410.50;2355.20;;;;;;5032765;28;20080;-80
2022/10/14 09:44:24;;;;;;;24.98;18.00;;;410.50;2355.20;;;;;;5032870;28;20084;-79
2022/10/14 09:46:57;;;;;;;18.80;13.82;;;410.50;2355.20;;;;;;5034095;28;20025;-82
2022/10/14 09:49:38;;;;;;;18.02;14.15;;;410.50;2355.20;;;;;;5032706;28;20025;-79
2022/10/14 09:52:04;;;;;;;22.80;15.95;;;435.20;2355.20;;;;;;5033834;28;20029;-79
2022/10/14 09:54:31;;;;;;;36.53;24.73;;;435.30;2355.20;;;;;;5032381;28;20028;-81
2022/10/14 09:57:03;;;;;;;28.98;20.95;;;435.30;2355.20;;;;;;5032090;28;20021;-82
2022/10/14 09:59:31;;;;;;;29.40;19.17;;;;;;;;;;5032513;28;20133;-83
2022/10/14 10:02:01;;;;;;;34.80;22.45;;;;;;;;;;5065824;28;20060;-84
2022/10/14 10:04:30;;;;;;;29.55;18.67;;;435.60;2355.20;;;;;;5033191;28;20362;-83
2022/10/14 10:06:56;;;;;;;44.92;30.67;;;435.40;2355.20;;;;;;5032485;28;20037;-81
2022/10/14 10:09:22;;;;;;;34.25;22.38;;;435.40;2355.20;;;;;;5033801;28;20033;-82
2022/10/14 10:11:48;;;;;;;25.75;17.67;;;435.40;2355.20;;;;;;5032122;28;20026;-83
2022/10/14 10:14:26;;;;;;;26.95;19.75;;;435.50;2355.20;;;;;;5032449;28;20067;-82
2022/10/14 10:17:11;;;;;;;33.63;25.33;;;;;;;;;;5033765;28;20022;-82
2022/10/14 10:19:39;;;;;;;26.65;18.92;;;435.80;2355.20;;;;;;5065305;28;20029;-83
2022/10/14 10:22:25;;;;;;;30.92;18.90;;;435.60;2355.20;;;;;;5032983;28;20116;-83
2022/10/14 10:25:11;;;;;;;21.13;13.95;;;435.80;2355.20;;;;;;5031957;28;20029;-82
2022/10/14 10:27:39;;;;;;;20.40;14.90;;;435.70;2355.20;;;;;;5064103;28;20116;-82
2022/10/14 10:30:26;;;;;;;26.02;16.63;;;435.70;2355.20;;;;;;5031752;28;20395;-82
2022/10/14 10:33:26;;;;;;;20.73;14.50;;;435.80;2355.20;;;;;;5031983;28;20029;-83
2022/10/14 10:36:21;;;;;;;17.27;12.45;;;435.80;2355.20;;;;;;5032275;28;20459;-82
2022/10/14 10:39:00;;;;;;;22.02;18.50;;;435.80;2355.20;;;;;;5031925;28;20018;-83
2022/10/14 10:41:48;;;;;;;24.05;15.70;;;;;;;;;;5032095;28;20116;-81
2022/10/14 10:44:14;;;;;;;15.45;12.57;;;;;;;;;;5033029;28;20032;-81
2022/10/14 10:46:50;;;;;;;17.38;12.43;;;;;;;;;;5065040;28;20040;-82
2022/10/14 10:49:52;;;;;;;17.80;13.70;;;460.80;2380.80;;;;;;5033221;28;20032;-81
2022/10/14 10:52:43;;;;;;;16.00;12.18;;;436.10;2355.20;;;;;;5040285;28;20033;-82
2022/10/14 10:55:27;;;;;;;19.05;12.68;;;436.10;2355.20;;;;;;5051946;28;20378;-82
2022/10/14 10:58:34;;;;;;;19.70;12.20;;;436.10;2355.20;;;;;;5050912;28;20029;-82
2022/10/14 11:01:35;;;;;;;16.05;10.85;;;460.80;2380.80;;;;;;5051522;28;20087;-82
2022/10/14 11:04:22;;;;;;;17.55;11.32;;;460.90;2380.80;;;;;;5053431;28;20165;-83
2022/10/14 11:13:24;;;;;;;22.67;12.60;;;461.00;2380.80;;;;;;5056573;28;20051;-84
2022/10/14 11:16:01;;;;;;;20.25;13.15;;;461.30;2380.80;;;;;;5055115;28;20052;-82
2022/10/14 11:18:44;;;;;;;20.90;12.48;;;;;;;;;;5055487;28;20036;-84
2022/10/14 11:21:23;;;;;;;24.45;13.23;;;461.40;2380.80;;;;;;5056158;28;20481;-82
2022/10/14 11:24:01;;;;;;;22.55;14.20;;;461.30;2380.80;;;;;;5056599;28;20060;-83
2022/10/14 11:26:40;;;;;;;19.98;13.15;;;461.30;2380.80;;;;;;5055385;28;20025;-81
2022/10/14 11:29:27;;;;;;;21.65;12.10;;;461.40;2380.80;;;;;;5054499;28;20033;-81
2022/10/14 11:32:31;;;;;;;21.05;12.25;;;461.50;2380.80;;;;;;5055145;28;20025;-82
2022/10/14 11:35:04;;;;;;;23.27;16.70;;;486.40;2380.80;;;;;;5085184;28;20470;-82
2022/10/14 11:37:45;;;;;;;26.20;18.25;;;486.50;2380.80;;;;;;5055158;28;20094;-83
2022/10/14 11:40:20;;;;;;;20.05;15.27;;;;;;;;;;5055091;28;20033;-83
2022/10/14 11:43:13;;;;;;;17.30;12.05;;;486.90;2380.80;;;;;;5054541;28;20116;-82
2022/10/14 11:46:09;;;;;;;15.82;10.68;;;;;;;;;;5054884;28;20029;-81
2022/10/14 11:48:38;;;;;;;12.95;8.90;;;;;;;;;;5042143;28;20054;-83
2022/10/14 11:51:07;;;;;;;13.50;8.65;;;;;;;;;;5054390;28;20036;-83
2022/10/14 11:53:36;;;;;;;12.45;8.98;;;;;;;;;;5054864;28;20089;-82
2022/10/14 11:56:08;;;;;;;14.80;8.95;;;;;;;;;;5054461;28;20437;-83
2022/10/14 11:58:35;;;;;;;13.68;9.32;;;;;;;;;;5054785;28;20103;-83
2022/10/14 12:01:03;;;;;;;14.98;9.27;;;;;;;;;;5054697;28;20098;-83
2022/10/14 12:03:29;;;;;;;15.57;9.35;;;;;;;;;;5054354;28;20021;-83
2022/10/14 12:05:58;;;;;;;12.00;9.45;;;;;;;;;;5054560;28;20021;-82
2022/10/14 12:08:29;;;;;;;13.98;9.02;;;;;;;;;;5054745;28;20465;-82
2022/10/14 12:11:07;;;;;;;18.45;9.57;;;;;;;;;;5054273;28;20024;-80
2022/10/14 12:13:38;;;;;;;9.23;7.07;;;;;;;;;;5054279;28;20025;-79
2022/10/14 12:16:07;;;;;;;13.10;8.05;;;;;;;;;;5054426;28;20469;-81
2022/10/14 12:18:34;;;;;;;11.20;8.48;;;;;;;;;;5053936;28;20025;-82
2022/10/14 12:21:13;;;;;;;11.98;8.52;;;;;;;;;;5048020;28;20110;-82
2022/10/14 12:23:41;;;;;;;14.20;7.50;;;;;;;;;;5035317;28;20466;-81
2022/10/14 12:26:20;;;;;;;11.55;7.70;;;;;;;;;;5032961;28;20029;-84
2022/10/14 12:28:46;;;;;;;12.05;7.43;;;;;;;;;;5034049;28;20033;-82
2022/10/14 12:31:36;;;;;;;11.18;6.88;;;;;;;;;;5034170;28;20513;-81
2022/10/14 12:34:14;;;;;;;13.20;7.38;;;;;;;;;;5034209;28;20017;-82
2022/10/14 12:36:41;;;;;;;14.50;7.30;;;;;;;;;;5034260;28;20033;-80
2022/10/14 12:39:16;;;;;;;13.63;7.65;;;;;;;;;;5033629;28;20037;-81
2022/10/14 12:41:55;;;;;;;9.45;7.20;;;;;;;;;;5034012;28;20021;-83
2022/10/14 12:44:23;;;;;;;10.10;7.07;;;;;;;;;;5034029;28;20033;-82
2022/10/14 12:46:50;;;;;;;11.75;8.18;;;;;;;;;;5033691;28;20026;-80
2022/10/14 12:49:31;;;;;;;10.98;7.05;;;;;;;;;;5033019;28;20033;-82
2022/10/14 12:52:08;;;;;;;12.73;7.45;;;;;;;;;;5032612;28;20170;-81
2022/10/14 12:54:36;;;;;;;11.93;8.07;;;;;;;;;;5033716;28;20079;-82
2022/10/14 12:57:16;;;;;;;12.40;7.85;;;;;;;;;;5033476;28;20021;-83
2022/10/14 12:59:47;;;;;;;14.90;8.48;;;;;;;;;;5033216;28;20038;-81
2022/10/14 13:02:18;;;;;;;12.43;8.77;;;;;;;;;;5033750;28;20045;-81
2022/10/14 13:04:48;;;;;;;13.95;9.82;;;;;;;;;;5033940;28;20025;-82
2022/10/14 13:07:17;;;;;;;15.48;10.43;;;;;;;;;;5035196;28;20018;-82
2022/10/14 13:09:44;;;;;;;29.55;12.90;;;;;;;;;;5050248;28;20021;-81